sensor_id;sensor_type;location;lat;lon;timestamp;P1;durP1;ratioP1;P2;durP2;ratioP2
8171;SDS011;4127;47.908;10.850;2023-01-23T00:02:09;18.10;;;12.90;;
8171;SDS011;4127;47.908;10.850;2023-01-23T00:04:36;16.80;;;12.80;;
8171;SDS011;4127;47.908;10.850;2023-01-23T00:07:02;19.17;;;14.07;;
8171;SDS011;4127;47.908;10.850;2023-01-23T00:09:29;21.87;;;15.23;;
8171;SDS011;4127;47.908;10.850;2023-01-23T00:11:57;22.90;;;16.30;;
8171;SDS011;4127;47.908;10.850;2023-01-23T00:14:23;25.43;;;18.03;;
8171;SDS011;4127;47.908;10.850;2023-01-23T00:16:50;28.93;;;19.27;;
8171;SDS011;4127;47.908;10.850;2023-01-23T00:19:18;23.43;;;16.73;;
8171;SDS011;4127;47.908;10.850;2023-01-23T00:21:45;25.53;;;18.17;;
8171;SDS011;4127;47.908;10.850;2023-01-23T00:24:12;25.80;;;17.63;;
8171;SDS011;4127;47.908;10.850;2023-01-23T00:26:38;25.73;;;17.90;;
8171;SDS011;4127;47.908;10.850;2023-01-23T00:29:05;29.43;;;19.87;;
8171;SDS011;4127;47.908;10.850;2023-01-23T00:31:33;29.10;;;19.20;;
8171;SDS011;4127;47.908;10.850;2023-01-23T00:34:04;25.10;;;17.17;;
8171;SDS011;4127;47.908;10.850;2023-01-23T00:36:33;31.50;;;20.23;;
8171;SDS011;4127;47.908;10.850;2023-01-23T00:39:05;25.43;;;17.27;;
8171;SDS011;4127;47.908;10.850;2023-01-23T00:41:34;29.83;;;19.17;;
8171;SDS011;4127;47.908;10.850;2023-01-23T00:44:01;25.60;;;17.77;;
8171;SDS011;4127;47.908;10.850;2023-01-23T00:46:28;28.27;;;19.23;;
8171;SDS011;4127;47.908;10.850;2023-01-23T00:48:55;29.03;;;19.30;;
8171;SDS011;4127;47.908;10.850;2023-01-23T00:51:22;25.40;;;17.43;;
8171;SDS011;4127;47.908;10.850;2023-01-23T00:53:49;26.07;;;17.90;;
8171;SDS011;4127;47.908;10.850;2023-01-23T00:56:16;24.57;;;17.90;;
8171;SDS011;4127;47.908;10.850;2023-01-23T00:58:43;24.33;;;16.67;;
8171;SDS011;4127;47.908;10.850;2023-01-23T01:01:10;22.37;;;16.60;;
8171;SDS011;4127;47.908;10.850;2023-01-23T01:03:38;20.60;;;15.47;;
8171;SDS011;4127;47.908;10.850;2023-01-23T01:06:05;19.70;;;15.27;;
8171;SDS011;4127;47.908;10.850;2023-01-23T01:08:32;21.83;;;15.63;;
8171;SDS011;4127;47.908;10.850;2023-01-23T01:10:59;25.00;;;17.27;;
8171;SDS011;4127;47.908;10.850;2023-01-23T01:13:26;21.03;;;14.97;;
8171;SDS011;4127;47.908;10.850;2023-01-23T01:15:54;24.97;;;17.40;;
8171;SDS011;4127;47.908;10.850;2023-01-23T01:18:22;20.00;;;15.30;;
8171;SDS011;4127;47.908;10.850;2023-01-23T01:20:49;15.00;;;11.53;;
8171;SDS011;4127;47.908;10.850;2023-01-23T02:27:51;22.63;;;15.97;;
8171;SDS011;4127;47.908;10.850;2023-01-23T02:30:18;25.13;;;17.50;;
8171;SDS011;4127;47.908;10.850;2023-01-23T02:39:40;20.80;;;13.93;;
8171;SDS011;4127;47.908;10.850;2023-01-23T02:42:07;20.33;;;14.97;;
8171;SDS011;4127;47.908;10.850;2023-01-23T02:44:41;19.00;;;14.97;;
8171;SDS011;4127;47.908;10.850;2023-01-23T02:53:49;18.80;;;13.27;;
8171;SDS011;4127;47.908;10.850;2023-01-23T02:56:16;19.50;;;14.57;;
8171;SDS011;4127;47.908;10.850;2023-01-23T02:58:44;20.50;;;14.00;;
8171;SDS011;4127;47.908;10.850;2023-01-23T03:08:35;17.93;;;12.57;;
8171;SDS011;4127;47.908;10.850;2023-01-23T03:11:13;18.10;;;13.63;;
8171;SDS011;4127;47.908;10.850;2023-01-23T03:20:25;18.90;;;12.73;;
8171;SDS011;4127;47.908;10.850;2023-01-23T03:22:53;13.93;;;10.93;;
8171;SDS011;4127;47.908;10.850;2023-01-23T03:25:20;12.83;;;10.03;;
8171;SDS011;4127;47.908;10.850;2023-01-23T03:34:16;13.90;;;10.93;;
8171;SDS011;4127;47.908;10.850;2023-01-23T03:36:44;13.00;;;10.83;;
8171;SDS011;4127;47.908;10.850;2023-01-23T03:48:40;16.07;;;11.93;;
8171;SDS011;4127;47.908;10.850;2023-01-23T03:51:09;15.53;;;11.23;;
8171;SDS011;4127;47.908;10.850;2023-01-23T03:53:37;14.73;;;11.23;;
8171;SDS011;4127;47.908;10.850;2023-01-23T03:59:23;14.63;;;11.17;;
8171;SDS011;4127;47.908;10.850;2023-01-23T04:01:57;13.80;;;11.10;;
8171;SDS011;4127;47.908;10.850;2023-01-23T04:04:29;15.07;;;11.13;;
8171;SDS011;4127;47.908;10.850;2023-01-23T04:07:00;17.07;;;10.97;;
8171;SDS011;4127;47.908;10.850;2023-01-23T04:13:46;14.93;;;11.17;;
8171;SDS011;4127;47.908;10.850;2023-01-23T04:16:13;15.27;;;10.60;;
8171;SDS011;4127;47.908;10.850;2023-01-23T04:18:40;14.40;;;10.97;;
8171;SDS011;4127;47.908;10.850;2023-01-23T04:21:07;13.67;;;10.20;;
8171;SDS011;4127;47.908;10.850;2023-01-23T04:30:17;14.73;;;10.83;;
8171;SDS011;4127;47.908;10.850;2023-01-23T04:32:45;14.90;;;10.80;;
8171;SDS011;4127;47.908;10.850;2023-01-23T04:35:17;15.50;;;12.20;;
8171;SDS011;4127;47.908;10.850;2023-01-23T04:41:18;13.30;;;10.33;;
8171;SDS011;4127;47.908;10.850;2023-01-23T04:43:47;15.53;;;11.37;;
8171;SDS011;4127;47.908;10.850;2023-01-23T04:46:14;16.07;;;11.60;;
8171;SDS011;4127;47.908;10.850;2023-01-23T04:48:41;16.90;;;11.87;;
8171;SDS011;4127;47.908;10.850;2023-01-23T04:54:59;16.57;;;11.90;;
8171;SDS011;4127;47.908;10.850;2023-01-23T04:57:26;17.37;;;12.10;;
8171;SDS011;4127;47.908;10.850;2023-01-23T05:00:03;13.50;;;10.90;;
8171;SDS011;4127;47.908;10.850;2023-01-23T05:02:31;14.70;;;10.93;;
8171;SDS011;4127;47.908;10.850;2023-01-23T05:08:11;12.77;;;10.33;;
8171;SDS011;4127;47.908;10.850;2023-01-23T05:10:38;16.43;;;12.10;;
8171;SDS011;4127;47.908;10.850;2023-01-23T05:13:08;13.87;;;11.20;;
8171;SDS011;4127;47.908;10.850;2023-01-23T05:15:35;14.67;;;11.13;;
8171;SDS011;4127;47.908;10.850;2023-01-23T05:25:24;17.00;;;12.47;;
8171;SDS011;4127;47.908;10.850;2023-01-23T05:27:59;16.13;;;11.80;;
8171;SDS011;4127;47.908;10.850;2023-01-23T05:37:03;15.53;;;11.57;;
8171;SDS011;4127;47.908;10.850;2023-01-23T05:39:32;15.23;;;12.20;;
8171;SDS011;4127;47.908;10.850;2023-01-23T05:41:59;16.40;;;12.23;;
8171;SDS011;4127;47.908;10.850;2023-01-23T05:51:20;16.43;;;11.93;;
8171;SDS011;4127;47.908;10.850;2023-01-23T05:53:51;16.83;;;12.73;;
8171;SDS011;4127;47.908;10.850;2023-01-23T05:56:18;15.17;;;12.67;;
8171;SDS011;4127;47.908;10.850;2023-01-23T06:05:22;18.53;;;12.67;;
8171;SDS011;4127;47.908;10.850;2023-01-23T06:07:49;14.73;;;11.73;;
8171;SDS011;4127;47.908;10.850;2023-01-23T06:10:16;16.60;;;12.73;;
8171;SDS011;4127;47.908;10.850;2023-01-23T06:19:05;15.60;;;12.00;;
8171;SDS011;4127;47.908;10.850;2023-01-23T06:21:41;18.13;;;12.20;;
8171;SDS011;4127;47.908;10.850;2023-01-23T06:24:17;17.13;;;12.30;;
8171;SDS011;4127;47.908;10.850;2023-01-23T06:30:32;18.40;;;12.77;;
8171;SDS011;4127;47.908;10.850;2023-01-23T06:32:59;14.13;;;10.70;;
8171;SDS011;4127;47.908;10.850;2023-01-23T06:35:26;15.33;;;11.70;;
8171;SDS011;4127;47.908;10.850;2023-01-23T06:37:53;15.07;;;10.87;;
8171;SDS011;4127;47.908;10.850;2023-01-23T06:44:00;16.27;;;12.17;;
8171;SDS011;4127;47.908;10.850;2023-01-23T06:46:27;14.60;;;11.27;;
8171;SDS011;4127;47.908;10.850;2023-01-23T06:51:49;16.40;;;11.90;;
8171;SDS011;4127;47.908;10.850;2023-01-23T06:58:00;16.57;;;12.03;;
8171;SDS011;4127;47.908;10.850;2023-01-23T07:00:44;15.77;;;12.07;;
8171;SDS011;4127;47.908;10.850;2023-01-23T07:03:59;15.17;;;10.60;;
8171;SDS011;4127;47.908;10.850;2023-01-23T07:06:49;15.67;;;12.57;;
8171;SDS011;4127;47.908;10.850;2023-01-23T07:10:39;17.90;;;12.43;;
8171;SDS011;4127;47.908;10.850;2023-01-23T07:13:47;16.40;;;11.90;;
8171;SDS011;4127;47.908;10.850;2023-01-23T07:17:51;18.40;;;12.23;;
8171;SDS011;4127;47.908;10.850;2023-01-23T07:24:34;17.90;;;12.80;;
8171;SDS011;4127;47.908;10.850;2023-01-23T07:27:05;17.93;;;13.00;;
8171;SDS011;4127;47.908;10.850;2023-01-23T07:29:32;17.57;;;12.93;;
8171;SDS011;4127;47.908;10.850;2023-01-23T07:32:00;20.50;;;15.13;;
8171;SDS011;4127;47.908;10.850;2023-01-23T07:34:39;18.03;;;13.80;;
8171;SDS011;4127;47.908;10.850;2023-01-23T07:41:00;18.70;;;13.90;;
8171;SDS011;4127;47.908;10.850;2023-01-23T07:43:33;20.93;;;14.20;;
8171;SDS011;4127;47.908;10.850;2023-01-23T07:46:13;20.13;;;14.60;;
8171;SDS011;4127;47.908;10.850;2023-01-23T07:52:32;21.77;;;15.67;;
8171;SDS011;4127;47.908;10.850;2023-01-23T07:55:20;25.37;;;15.80;;
8171;SDS011;4127;47.908;10.850;2023-01-23T07:58:41;19.87;;;13.90;;
8171;SDS011;4127;47.908;10.850;2023-01-23T08:08:29;26.43;;;17.43;;
8171;SDS011;4127;47.908;10.850;2023-01-23T08:10:56;30.77;;;18.90;;
8171;SDS011;4127;47.908;10.850;2023-01-23T08:13:23;28.23;;;18.03;;
8171;SDS011;4127;47.908;10.850;2023-01-23T08:22:39;34.93;;;20.57;;
8171;SDS011;4127;47.908;10.850;2023-01-23T08:25:07;40.57;;;22.30;;
8171;SDS011;4127;47.908;10.850;2023-01-23T08:34:37;41.17;;;23.10;;
8171;SDS011;4127;47.908;10.850;2023-01-23T09:58:40;39.93;;;21.57;;
8171;SDS011;4127;47.908;10.850;2023-01-23T10:01:12;37.07;;;21.73;;
8171;SDS011;4127;47.908;10.850;2023-01-23T10:03:39;37.00;;;20.80;;
8171;SDS011;4127;47.908;10.850;2023-01-23T10:06:23;37.63;;;23.37;;
8171;SDS011;4127;47.908;10.850;2023-01-23T10:11:28;37.83;;;21.77;;
8171;SDS011;4127;47.908;10.850;2023-01-23T10:17:13;36.73;;;21.43;;
8171;SDS011;4127;47.908;10.850;2023-01-23T10:22:31;35.07;;;20.70;;
8171;SDS011;4127;47.908;10.850;2023-01-23T10:27:44;33.53;;;20.60;;
8171;SDS011;4127;47.908;10.850;2023-01-23T10:30:20;34.87;;;20.23;;
8171;SDS011;4127;47.908;10.850;2023-01-23T10:41:09;34.30;;;20.00;;
8171;SDS011;4127;47.908;10.850;2023-01-23T10:43:49;38.67;;;21.33;;
8171;SDS011;4127;47.908;10.850;2023-01-23T10:46:21;34.77;;;20.37;;
8171;SDS011;4127;47.908;10.850;2023-01-23T10:48:54;34.40;;;21.93;;
8171;SDS011;4127;47.908;10.850;2023-01-23T10:56:32;36.17;;;20.67;;
8171;SDS011;4127;47.908;10.850;2023-01-23T11:02:51;37.27;;;21.53;;
8171;SDS011;4127;47.908;10.850;2023-01-23T11:09:17;36.33;;;20.90;;
8171;SDS011;4127;47.908;10.850;2023-01-23T11:12:04;37.80;;;20.70;;
8171;SDS011;4127;47.908;10.850;2023-01-23T11:14:51;31.67;;;19.67;;
8171;SDS011;4127;47.908;10.850;2023-01-23T11:17:58;33.40;;;20.47;;
8171;SDS011;4127;47.908;10.850;2023-01-23T11:25:36;31.53;;;19.87;;
8171;SDS011;4127;47.908;10.850;2023-01-23T11:31:00;32.97;;;19.70;;
8171;SDS011;4127;47.908;10.850;2023-01-23T11:33:44;28.87;;;19.10;;
8171;SDS011;4127;47.908;10.850;2023-01-23T11:36:29;35.10;;;19.70;;
8171;SDS011;4127;47.908;10.850;2023-01-23T11:41:44;34.30;;;20.47;;
8171;SDS011;4127;47.908;10.850;2023-01-23T11:44:13;37.93;;;20.80;;
8171;SDS011;4127;47.908;10.850;2023-01-23T11:58:04;35.97;;;21.70;;
8171;SDS011;4127;47.908;10.850;2023-01-23T12:09:30;40.00;;;21.97;;
8171;SDS011;4127;47.908;10.850;2023-01-23T12:18:13;38.87;;;22.17;;
8171;SDS011;4127;47.908;10.850;2023-01-23T12:20:57;42.70;;;23.13;;
8171;SDS011;4127;47.908;10.850;2023-01-23T12:24:08;40.90;;;23.20;;
8171;SDS011;4127;47.908;10.850;2023-01-23T12:26:57;35.30;;;20.77;;
8171;SDS011;4127;47.908;10.850;2023-01-23T12:40:49;45.57;;;25.57;;
8171;SDS011;4127;47.908;10.850;2023-01-23T12:46:22;40.40;;;21.90;;
8171;SDS011;4127;47.908;10.850;2023-01-23T12:52:01;39.00;;;24.13;;
8171;SDS011;4127;47.908;10.850;2023-01-23T12:54:55;40.90;;;22.53;;
8171;SDS011;4127;47.908;10.850;2023-01-23T12:57:32;41.30;;;22.97;;
8171;SDS011;4127;47.908;10.850;2023-01-23T13:03:46;39.97;;;23.03;;
8171;SDS011;4127;47.908;10.850;2023-01-23T13:06:43;41.77;;;22.60;;
8171;SDS011;4127;47.908;10.850;2023-01-23T13:18:37;35.87;;;22.23;;
8171;SDS011;4127;47.908;10.850;2023-01-23T13:21:25;40.23;;;24.40;;
8171;SDS011;4127;47.908;10.850;2023-01-23T13:27:47;36.90;;;21.57;;
8171;SDS011;4127;47.908;10.850;2023-01-23T13:32:52;36.00;;;22.97;;
8171;SDS011;4127;47.908;10.850;2023-01-23T13:52:27;37.27;;;22.73;;
8171;SDS011;4127;47.908;10.850;2023-01-23T13:55:33;36.43;;;22.70;;
8171;SDS011;4127;47.908;10.850;2023-01-23T13:58:39;42.57;;;23.73;;
8171;SDS011;4127;47.908;10.850;2023-01-23T14:01:20;38.53;;;23.43;;
8171;SDS011;4127;47.908;10.850;2023-01-23T14:04:22;40.97;;;23.10;;
8171;SDS011;4127;47.908;10.850;2023-01-23T14:07:25;37.97;;;22.40;;
8171;SDS011;4127;47.908;10.850;2023-01-23T14:13:17;41.33;;;24.50;;
8171;SDS011;4127;47.908;10.850;2023-01-23T14:16:05;39.80;;;24.33;;
8171;SDS011;4127;47.908;10.850;2023-01-23T14:19:03;38.60;;;24.07;;
8171;SDS011;4127;47.908;10.850;2023-01-23T14:21:49;41.73;;;24.57;;
8171;SDS011;4127;47.908;10.850;2023-01-23T14:24:23;38.20;;;24.03;;
8171;SDS011;4127;47.908;10.850;2023-01-23T14:27:05;41.77;;;25.77;;
8171;SDS011;4127;47.908;10.850;2023-01-23T14:29:34;37.50;;;24.00;;
8171;SDS011;4127;47.908;10.850;2023-01-23T14:32:02;41.20;;;25.03;;
8171;SDS011;4127;47.908;10.850;2023-01-23T14:34:37;42.80;;;23.97;;
8171;SDS011;4127;47.908;10.850;2023-01-23T14:37:06;40.50;;;24.43;;
8171;SDS011;4127;47.908;10.850;2023-01-23T14:39:37;41.93;;;25.30;;
8171;SDS011;4127;47.908;10.850;2023-01-23T14:42:07;45.07;;;26.80;;
8171;SDS011;4127;47.908;10.850;2023-01-23T14:44:48;42.50;;;25.23;;
8171;SDS011;4127;47.908;10.850;2023-01-23T14:49:59;41.63;;;26.27;;
8171;SDS011;4127;47.908;10.850;2023-01-23T14:52:28;44.63;;;26.70;;
8171;SDS011;4127;47.908;10.850;2023-01-23T14:54:57;44.90;;;26.60;;
8171;SDS011;4127;47.908;10.850;2023-01-23T14:57:33;42.13;;;25.87;;
8171;SDS011;4127;47.908;10.850;2023-01-23T15:00:12;43.87;;;26.03;;
8171;SDS011;4127;47.908;10.850;2023-01-23T15:02:44;44.73;;;27.53;;
8171;SDS011;4127;47.908;10.850;2023-01-23T15:05:18;44.50;;;27.70;;
8171;SDS011;4127;47.908;10.850;2023-01-23T15:13:05;46.10;;;27.00;;
8171;SDS011;4127;47.908;10.850;2023-01-23T15:15:38;47.37;;;27.03;;
8171;SDS011;4127;47.908;10.850;2023-01-23T15:18:20;50.30;;;29.37;;
8171;SDS011;4127;47.908;10.850;2023-01-23T15:21:10;52.00;;;29.90;;
8171;SDS011;4127;47.908;10.850;2023-01-23T15:24:03;51.07;;;30.33;;
8171;SDS011;4127;47.908;10.850;2023-01-23T15:26:34;49.70;;;28.70;;
8171;SDS011;4127;47.908;10.850;2023-01-23T15:39:19;48.83;;;27.97;;
8171;SDS011;4127;47.908;10.850;2023-01-23T15:41:55;50.70;;;27.83;;
8171;SDS011;4127;47.908;10.850;2023-01-23T15:44:28;50.93;;;30.50;;
8171;SDS011;4127;47.908;10.850;2023-01-23T15:47:00;53.87;;;28.23;;
8171;SDS011;4127;47.908;10.850;2023-01-23T15:49:29;45.50;;;27.83;;
8171;SDS011;4127;47.908;10.850;2023-01-23T15:51:58;50.17;;;28.30;;
8171;SDS011;4127;47.908;10.850;2023-01-23T15:57:01;41.07;;;25.07;;
8171;SDS011;4127;47.908;10.850;2023-01-23T15:59:34;45.90;;;26.73;;
8171;SDS011;4127;47.908;10.850;2023-01-23T16:02:04;45.43;;;26.83;;
8171;SDS011;4127;47.908;10.850;2023-01-23T16:04:41;45.03;;;26.07;;
8171;SDS011;4127;47.908;10.850;2023-01-23T16:07:19;43.10;;;26.53;;
8171;SDS011;4127;47.908;10.850;2023-01-23T16:10:20;45.37;;;24.97;;
8171;SDS011;4127;47.908;10.850;2023-01-23T16:12:58;38.50;;;23.73;;
8171;SDS011;4127;47.908;10.850;2023-01-23T16:15:39;35.63;;;23.63;;
8171;SDS011;4127;47.908;10.850;2023-01-23T16:18:55;37.13;;;22.57;;
8171;SDS011;4127;47.908;10.850;2023-01-23T16:21:48;31.20;;;21.27;;
8171;SDS011;4127;47.908;10.850;2023-01-23T16:24:29;34.87;;;21.00;;
8171;SDS011;4127;47.908;10.850;2023-01-23T16:27:05;31.13;;;20.53;;
8171;SDS011;4127;47.908;10.850;2023-01-23T16:29:36;34.63;;;20.27;;
8171;SDS011;4127;47.908;10.850;2023-01-23T16:32:07;30.63;;;20.27;;
8171;SDS011;4127;47.908;10.850;2023-01-23T16:34:46;29.13;;;20.03;;
8171;SDS011;4127;47.908;10.850;2023-01-23T16:37:38;27.47;;;19.40;;
8171;SDS011;4127;47.908;10.850;2023-01-23T16:40:22;30.30;;;19.97;;
8171;SDS011;4127;47.908;10.850;2023-01-23T16:43:00;28.33;;;19.93;;
8171;SDS011;4127;47.908;10.850;2023-01-23T16:45:33;29.20;;;20.23;;
8171;SDS011;4127;47.908;10.850;2023-01-23T16:48:02;29.97;;;18.77;;
8171;SDS011;4127;47.908;10.850;2023-01-23T16:50:33;29.83;;;19.07;;
8171;SDS011;4127;47.908;10.850;2023-01-23T16:56:21;30.70;;;19.33;;
8171;SDS011;4127;47.908;10.850;2023-01-23T16:58:57;27.77;;;18.43;;
8171;SDS011;4127;47.908;10.850;2023-01-23T17:01:44;25.93;;;17.50;;
8171;SDS011;4127;47.908;10.850;2023-01-23T17:04:22;26.57;;;16.70;;
8171;SDS011;4127;47.908;10.850;2023-01-23T17:06:58;28.03;;;18.07;;
8171;SDS011;4127;47.908;10.850;2023-01-23T17:09:25;23.27;;;16.13;;
8171;SDS011;4127;47.908;10.850;2023-01-23T17:13:07;23.33;;;16.53;;
8171;SDS011;4127;47.908;10.850;2023-01-23T17:15:59;27.67;;;18.27;;
8171;SDS011;4127;47.908;10.850;2023-01-23T17:19:06;25.20;;;18.40;;
8171;SDS011;4127;47.908;10.850;2023-01-23T17:22:19;25.13;;;17.40;;
8171;SDS011;4127;47.908;10.850;2023-01-23T17:25:05;27.20;;;18.13;;
8171;SDS011;4127;47.908;10.850;2023-01-23T17:28:16;28.23;;;18.00;;
8171;SDS011;4127;47.908;10.850;2023-01-23T17:30:58;24.83;;;16.73;;
8171;SDS011;4127;47.908;10.850;2023-01-23T17:33:35;22.93;;;16.00;;
8171;SDS011;4127;47.908;10.850;2023-01-23T17:36:05;25.17;;;16.73;;
8171;SDS011;4127;47.908;10.850;2023-01-23T17:38:48;25.70;;;16.30;;
8171;SDS011;4127;47.908;10.850;2023-01-23T17:41:35;23.30;;;16.27;;
8171;SDS011;4127;47.908;10.850;2023-01-23T17:44:08;23.70;;;16.17;;
8171;SDS011;4127;47.908;10.850;2023-01-23T17:46:35;25.67;;;18.20;;
8171;SDS011;4127;47.908;10.850;2023-01-23T17:52:01;27.10;;;17.33;;
8171;SDS011;4127;47.908;10.850;2023-01-23T17:54:31;24.40;;;17.07;;
8171;SDS011;4127;47.908;10.850;2023-01-23T17:56:58;24.23;;;16.53;;
8171;SDS011;4127;47.908;10.850;2023-01-23T17:59:25;22.33;;;16.17;;
8171;SDS011;4127;47.908;10.850;2023-01-23T18:01:52;22.70;;;16.10;;
8171;SDS011;4127;47.908;10.850;2023-01-23T18:04:22;23.87;;;15.73;;
8171;SDS011;4127;47.908;10.850;2023-01-23T18:06:49;21.73;;;15.13;;
8171;SDS011;4127;47.908;10.850;2023-01-23T18:09:16;24.37;;;16.63;;
8171;SDS011;4127;47.908;10.850;2023-01-23T18:11:46;23.37;;;16.00;;
8171;SDS011;4127;47.908;10.850;2023-01-23T18:14:45;28.27;;;18.60;;
8171;SDS011;4127;47.908;10.850;2023-01-23T18:17:44;22.37;;;14.80;;
8171;SDS011;4127;47.908;10.850;2023-01-23T18:20:40;19.80;;;13.97;;
8171;SDS011;4127;47.908;10.850;2023-01-23T18:23:38;21.63;;;15.50;;
8171;SDS011;4127;47.908;10.850;2023-01-23T18:26:12;19.90;;;14.33;;
8171;SDS011;4127;47.908;10.850;2023-01-23T18:29:29;19.77;;;14.50;;
8171;SDS011;4127;47.908;10.850;2023-01-23T18:35:53;19.90;;;14.33;;
8171;SDS011;4127;47.908;10.850;2023-01-23T18:43:36;20.47;;;14.23;;
8171;SDS011;4127;47.908;10.850;2023-01-23T18:46:28;21.77;;;14.53;;
8171;SDS011;4127;47.908;10.850;2023-01-23T18:49:02;22.00;;;14.33;;
8171;SDS011;4127;47.908;10.850;2023-01-23T18:51:42;21.50;;;15.20;;
8171;SDS011;4127;47.908;10.850;2023-01-23T19:00:43;20.00;;;14.53;;
8171;SDS011;4127;47.908;10.850;2023-01-23T19:03:31;22.43;;;15.07;;
8171;SDS011;4127;47.908;10.850;2023-01-23T19:06:35;20.93;;;14.30;;
8171;SDS011;4127;47.908;10.850;2023-01-23T19:09:19;22.57;;;15.90;;
8171;SDS011;4127;47.908;10.850;2023-01-23T19:12:08;25.07;;;19.33;;
8171;SDS011;4127;47.908;10.850;2023-01-23T19:24:04;24.33;;;16.30;;
8171;SDS011;4127;47.908;10.850;2023-01-23T19:27:33;22.43;;;15.33;;
8171;SDS011;4127;47.908;10.850;2023-01-23T19:30:16;18.10;;;12.93;;
8171;SDS011;4127;47.908;10.850;2023-01-23T19:33:01;22.27;;;15.43;;
8171;SDS011;4127;47.908;10.850;2023-01-23T19:35:28;20.77;;;14.63;;
8171;SDS011;4127;47.908;10.850;2023-01-23T19:38:00;20.57;;;15.20;;
8171;SDS011;4127;47.908;10.850;2023-01-23T19:40:30;20.63;;;14.97;;
8171;SDS011;4127;47.908;10.850;2023-01-23T19:42:56;22.60;;;15.60;;
8171;SDS011;4127;47.908;10.850;2023-01-23T19:45:39;20.23;;;14.03;;
8171;SDS011;4127;47.908;10.850;2023-01-23T19:48:09;21.87;;;15.53;;
8171;SDS011;4127;47.908;10.850;2023-01-23T19:50:40;22.37;;;16.03;;
8171;SDS011;4127;47.908;10.850;2023-01-23T19:53:31;21.70;;;14.97;;
8171;SDS011;4127;47.908;10.850;2023-01-23T19:56:01;23.30;;;16.10;;
8171;SDS011;4127;47.908;10.850;2023-01-23T19:58:28;21.20;;;15.40;;
8171;SDS011;4127;47.908;10.850;2023-01-23T20:01:00;22.03;;;14.87;;
8171;SDS011;4127;47.908;10.850;2023-01-23T20:03:34;20.67;;;14.20;;
8171;SDS011;4127;47.908;10.850;2023-01-23T20:06:01;21.00;;;15.30;;
8171;SDS011;4127;47.908;10.850;2023-01-23T20:08:28;21.47;;;16.10;;
8171;SDS011;4127;47.908;10.850;2023-01-23T20:10:58;20.97;;;14.43;;
8171;SDS011;4127;47.908;10.850;2023-01-23T20:13:25;24.30;;;15.57;;
8171;SDS011;4127;47.908;10.850;2023-01-23T20:15:52;22.00;;;14.83;;
8171;SDS011;4127;47.908;10.850;2023-01-23T20:18:20;22.07;;;16.03;;
8171;SDS011;4127;47.908;10.850;2023-01-23T20:20:47;23.83;;;16.07;;
8171;SDS011;4127;47.908;10.850;2023-01-23T20:23:14;24.10;;;15.70;;
8171;SDS011;4127;47.908;10.850;2023-01-23T20:25:54;21.07;;;15.80;;
8171;SDS011;4127;47.908;10.850;2023-01-23T20:28:28;22.23;;;15.43;;
8171;SDS011;4127;47.908;10.850;2023-01-23T20:31:03;26.17;;;16.93;;
8171;SDS011;4127;47.908;10.850;2023-01-23T20:33:39;26.27;;;17.03;;
8171;SDS011;4127;47.908;10.850;2023-01-23T20:36:07;22.90;;;16.07;;
8171;SDS011;4127;47.908;10.850;2023-01-23T20:38:38;20.80;;;15.97;;
8171;SDS011;4127;47.908;10.850;2023-01-23T20:41:09;25.13;;;16.07;;
8171;SDS011;4127;47.908;10.850;2023-01-23T20:43:38;24.90;;;16.37;;
8171;SDS011;4127;47.908;10.850;2023-01-23T20:46:08;20.60;;;14.83;;
8171;SDS011;4127;47.908;10.850;2023-01-23T20:48:44;23.60;;;15.93;;
8171;SDS011;4127;47.908;10.850;2023-01-23T20:51:16;21.63;;;14.77;;
8171;SDS011;4127;47.908;10.850;2023-01-23T20:54:04;22.17;;;14.63;;
8171;SDS011;4127;47.908;10.850;2023-01-23T20:56:40;24.13;;;15.30;;
8171;SDS011;4127;47.908;10.850;2023-01-23T20:59:10;21.60;;;14.80;;
8171;SDS011;4127;47.908;10.850;2023-01-23T21:02:09;22.20;;;15.23;;
8171;SDS011;4127;47.908;10.850;2023-01-23T21:05:07;18.30;;;13.90;;
8171;SDS011;4127;47.908;10.850;2023-01-23T21:08:47;21.00;;;13.93;;
8171;SDS011;4127;47.908;10.850;2023-01-23T21:11:23;18.77;;;13.77;;
8171;SDS011;4127;47.908;10.850;2023-01-23T21:13:56;17.73;;;13.43;;
8171;SDS011;4127;47.908;10.850;2023-01-23T21:20:50;18.33;;;14.03;;
8171;SDS011;4127;47.908;10.850;2023-01-23T21:23:33;19.33;;;13.27;;
8171;SDS011;4127;47.908;10.850;2023-01-23T21:26:10;19.00;;;13.43;;
8171;SDS011;4127;47.908;10.850;2023-01-23T21:29:02;16.77;;;13.07;;
8171;SDS011;4127;47.908;10.850;2023-01-23T21:31:36;21.40;;;13.87;;
8171;SDS011;4127;47.908;10.850;2023-01-23T21:34:06;19.00;;;13.23;;
8171;SDS011;4127;47.908;10.850;2023-01-23T21:36:38;15.83;;;12.63;;
8171;SDS011;4127;47.908;10.850;2023-01-23T21:39:24;16.13;;;12.13;;
8171;SDS011;4127;47.908;10.850;2023-01-23T21:42:00;15.40;;;11.40;;
8171;SDS011;4127;47.908;10.850;2023-01-23T21:44:27;17.33;;;12.00;;
8171;SDS011;4127;47.908;10.850;2023-01-23T21:47:03;15.70;;;10.90;;
8171;SDS011;4127;47.908;10.850;2023-01-23T21:49:36;15.30;;;12.17;;
8171;SDS011;4127;47.908;10.850;2023-01-23T21:52:22;16.43;;;11.67;;
8171;SDS011;4127;47.908;10.850;2023-01-23T21:55:01;15.83;;;11.40;;
8171;SDS011;4127;47.908;10.850;2023-01-23T21:58:00;13.30;;;10.37;;
8171;SDS011;4127;47.908;10.850;2023-01-23T22:00:35;16.47;;;12.27;;
8171;SDS011;4127;47.908;10.850;2023-01-23T22:03:20;14.60;;;11.27;;
8171;SDS011;4127;47.908;10.850;2023-01-23T22:05:47;13.80;;;10.40;;
8171;SDS011;4127;47.908;10.850;2023-01-23T22:08:14;14.47;;;10.77;;
8171;SDS011;4127;47.908;10.850;2023-01-23T22:10:41;16.77;;;12.07;;
8171;SDS011;4127;47.908;10.850;2023-01-23T22:13:07;16.17;;;11.40;;
8171;SDS011;4127;47.908;10.850;2023-01-23T22:15:34;14.53;;;11.80;;
8171;SDS011;4127;47.908;10.850;2023-01-23T22:18:01;15.70;;;12.00;;
8171;SDS011;4127;47.908;10.850;2023-01-23T22:20:28;15.70;;;11.60;;
8171;SDS011;4127;47.908;10.850;2023-01-23T22:22:54;14.03;;;11.23;;
8171;SDS011;4127;47.908;10.850;2023-01-23T22:25:21;16.30;;;12.43;;
8171;SDS011;4127;47.908;10.850;2023-01-23T22:27:48;17.47;;;12.30;;
8171;SDS011;4127;47.908;10.850;2023-01-23T22:30:15;17.57;;;13.03;;
8171;SDS011;4127;47.908;10.850;2023-01-23T22:32:42;16.33;;;12.73;;
8171;SDS011;4127;47.908;10.850;2023-01-23T22:35:09;14.77;;;11.50;;
8171;SDS011;4127;47.908;10.850;2023-01-23T22:37:36;18.00;;;12.67;;
8171;SDS011;4127;47.908;10.850;2023-01-23T22:40:06;15.13;;;12.13;;
8171;SDS011;4127;47.908;10.850;2023-01-23T22:42:33;16.67;;;12.17;;
8171;SDS011;4127;47.908;10.850;2023-01-23T22:45:03;17.97;;;13.13;;
8171;SDS011;4127;47.908;10.850;2023-01-23T22:47:30;18.30;;;13.53;;
8171;SDS011;4127;47.908;10.850;2023-01-23T22:49:57;17.20;;;13.87;;
8171;SDS011;4127;47.908;10.850;2023-01-23T22:52:23;17.83;;;13.87;;
8171;SDS011;4127;47.908;10.850;2023-01-23T22:54:50;18.23;;;14.20;;
8171;SDS011;4127;47.908;10.850;2023-01-23T22:57:17;19.23;;;13.53;;
8171;SDS011;4127;47.908;10.850;2023-01-23T22:59:44;16.00;;;12.63;;
8171;SDS011;4127;47.908;10.850;2023-01-23T23:02:12;19.00;;;13.27;;
8171;SDS011;4127;47.908;10.850;2023-01-23T23:04:39;15.73;;;13.10;;
8171;SDS011;4127;47.908;10.850;2023-01-23T23:09:36;14.70;;;11.07;;
8171;SDS011;4127;47.908;10.850;2023-01-23T23:12:03;19.07;;;13.27;;
8171;SDS011;4127;47.908;10.850;2023-01-23T23:14:30;16.53;;;12.03;;
8171;SDS011;4127;47.908;10.850;2023-01-23T23:16:57;16.30;;;12.73;;
8171;SDS011;4127;47.908;10.850;2023-01-23T23:21:50;17.97;;;12.70;;
8171;SDS011;4127;47.908;10.850;2023-01-23T23:24:17;15.83;;;12.17;;
8171;SDS011;4127;47.908;10.850;2023-01-23T23:53:50;14.73;;;11.23;;